createdAt,value
2022-09-18T00:01:33.963Z,97193.66
2022-09-18T00:04:07.228Z,97200.06
2022-09-18T00:06:38.556Z,97203.03
2022-09-18T00:09:09.930Z,97208.44
2022-09-18T00:11:40.689Z,97201.09
2022-09-18T00:14:10.617Z,97203.59
2022-09-18T00:16:39.117Z,97198.38
2022-09-18T00:19:07.407Z,97198.47
2022-09-18T00:21:37.597Z,97190.78
2022-09-18T00:24:06.980Z,97193.69
2022-09-18T00:26:35.879Z,97201.03
2022-09-18T00:29:04.423Z,97201.88
2022-09-18T00:31:35.190Z,97194.44
2022-09-18T00:34:11.450Z,97193.50
2022-09-18T00:36:39.734Z,97197.78
2022-09-18T00:39:08.253Z,97191.03
2022-09-18T00:41:39.788Z,97206.13
2022-09-18T00:44:46.068Z,97201.56
2022-09-18T00:47:29.885Z,97202.44
2022-09-18T00:49:57.274Z,97219.34
2022-09-18T00:52:29.779Z,97211.94
2022-09-18T00:55:02.877Z,97209.88
2022-09-18T00:57:34.053Z,97212.75
2022-09-18T01:00:04.515Z,97213.28
2022-09-18T01:02:32.270Z,97216.25
2022-09-18T01:04:59.766Z,97220.06
2022-09-18T01:07:54.613Z,97217.31
2022-09-18T01:10:40.588Z,97213.31
2022-09-18T01:13:34.941Z,97212.09
2022-09-18T01:16:22.838Z,97226.63
2022-09-18T01:19:24.477Z,97226.78
2022-09-18T01:22:22.766Z,97217.34
2022-09-18T01:25:08.361Z,97222.50
2022-09-18T01:27:40.135Z,97220.28
2022-09-18T01:30:11.464Z,97226.97
2022-09-18T01:32:59.590Z,97221.31
2022-09-18T01:35:42.200Z,97221.81
2022-09-18T01:38:32.132Z,97216.78
2022-09-18T01:41:12.009Z,97221.50
2022-09-18T01:43:41.597Z,97225.25
2022-09-18T01:46:15.818Z,97229.09
2022-09-18T01:48:57.482Z,97229.09
2022-09-18T01:51:40.250Z,97237.31
2022-09-18T01:54:17.330Z,97246.28
2022-09-18T01:56:51.888Z,97245.09
2022-09-18T01:59:25.142Z,97251.06
2022-09-18T02:02:03.834Z,97255.69
2022-09-18T02:04:36.314Z,97247.97
2022-09-18T02:07:28.928Z,97256.22
2022-09-18T02:09:58.625Z,97271.31
2022-09-18T02:12:29.357Z,97274.44
2022-09-18T02:15:06.302Z,97274.44
2022-09-18T02:17:59.528Z,97270.16
2022-09-18T02:20:38.768Z,97262.47
2022-09-18T02:23:08.315Z,97267.94
2022-09-18T02:25:46.191Z,97272.97
2022-09-18T02:28:17.218Z,97272.09
2022-09-18T02:30:45.763Z,97277.25
2022-09-18T02:33:30.927Z,97274.09
2022-09-18T02:36:07.671Z,97267.50
2022-09-18T02:39:09.050Z,97282.84
2022-09-18T02:41:58.156Z,97280.00
2022-09-18T02:44:43.081Z,97281.63
2022-09-18T02:47:31.271Z,97294.13
2022-09-18T02:50:13.431Z,97294.41
2022-09-18T02:52:41.398Z,97291.81
2022-09-18T02:55:32.247Z,97301.16
2022-09-18T02:58:05.975Z,97303.16
2022-09-18T03:00:36.322Z,97302.28
2022-09-18T03:03:15.797Z,97295.84
2022-09-18T03:05:51.110Z,97287.63
2022-09-18T03:08:19.630Z,97291.34
2022-09-18T03:10:47.189Z,97289.34
2022-09-18T03:13:15.821Z,97302.28
2022-09-18T03:15:43.724Z,97304.28
2022-09-18T03:18:11.808Z,97300.88
2022-09-18T03:20:42.476Z,97301.63
2022-09-18T03:23:11.237Z,97312.28
2022-09-18T03:25:39.551Z,97315.56
2022-09-18T03:28:09.114Z,97315.91
2022-09-18T03:30:40.550Z,97311.97
2022-09-18T03:33:08.756Z,97327.72
2022-09-18T03:35:36.357Z,97329.59
2022-09-18T03:38:03.889Z,97334.28
2022-09-18T03:40:32.045Z,97342.50
2022-09-18T03:43:04.314Z,97341.75
2022-09-18T03:45:32.132Z,97345.91
2022-09-18T03:48:00.690Z,97357.28
2022-09-18T03:50:29.580Z,97356.00
2022-09-18T03:52:57.491Z,97357.09
2022-09-18T03:55:39.321Z,97354.25
2022-09-18T03:58:22.009Z,97356.56
2022-09-18T04:01:08.439Z,97366.63
2022-09-18T04:03:56.068Z,97362.38
2022-09-18T04:06:49.612Z,97361.50
2022-09-18T04:09:37.039Z,97367.28
2022-09-18T04:12:04.693Z,97366.63
2022-09-18T04:14:32.954Z,97372.91
2022-09-18T04:17:00.774Z,97370.16
2022-09-18T04:19:30.323Z,97371.78
2022-09-18T04:21:58.684Z,97379.13
2022-09-18T04:24:26.562Z,97382.84
2022-09-18T04:26:54.105Z,97385.44
2022-09-18T04:29:24.355Z,97387.81
2022-09-18T04:31:52.278Z,97381.81
2022-09-18T04:34:22.130Z,97393.31
2022-09-18T04:36:49.750Z,97381.81
2022-09-18T04:39:17.664Z,97386.19
2022-09-18T04:41:48.016Z,97390.56
2022-09-18T04:44:15.851Z,97397.69
2022-09-18T04:46:44.088Z,97404.41
2022-09-18T04:49:11.768Z,97404.63
2022-09-18T04:51:39.249Z,97410.19
2022-09-18T04:54:06.786Z,97411.97
2022-09-18T04:56:38.252Z,97409.00
2022-09-18T04:59:05.709Z,97411.63
2022-09-18T05:01:38.389Z,97419.09
2022-09-18T05:04:11.584Z,97432.25
2022-09-18T05:06:48.447Z,97431.81
2022-09-18T05:09:17.828Z,97427.97
2022-09-18T05:11:45.366Z,97424.78
2022-09-18T05:14:13.140Z,97416.03
2022-09-18T05:16:44.471Z,97432.47
2022-09-18T05:19:37.474Z,97432.69
2022-09-18T05:22:10.563Z,97424.13
2022-09-18T05:24:42.283Z,97428.75
2022-09-18T05:27:09.759Z,97434.78
2022-09-18T05:29:37.964Z,97442.91
2022-09-18T05:32:18.559Z,97452.31
2022-09-18T05:34:50.411Z,97440.47
2022-09-18T05:37:18.902Z,97440.38
2022-09-18T05:39:50.678Z,97441.22
2022-09-18T05:42:18.154Z,97449.34
2022-09-18T05:44:45.567Z,97447.50
2022-09-18T05:47:18.287Z,97457.81
2022-09-18T05:49:45.800Z,97455.94
2022-09-18T05:52:13.654Z,97459.44
2022-09-18T05:54:41.768Z,97471.41
2022-09-18T05:57:10.265Z,97466.38
2022-09-18T05:59:37.852Z,97460.88
2022-09-18T06:02:06.296Z,97468.53
2022-09-18T06:04:53.895Z,97475.88
2022-09-18T06:07:21.277Z,97478.97
2022-09-18T06:09:50.025Z,97482.38
2022-09-18T06:12:17.516Z,97480.59
2022-09-18T06:14:44.969Z,97491.59
2022-09-18T06:17:12.301Z,97487.84
2022-09-18T06:19:39.835Z,97483.91
2022-09-18T06:22:08.427Z,97494.97
2022-09-18T06:24:37.125Z,97485.03
2022-09-18T06:27:10.150Z,97484.16
2022-09-18T06:29:39.087Z,97486.31
2022-09-18T06:32:11.735Z,97497.19
2022-09-18T06:34:40.798Z,97500.69
2022-09-18T06:37:12.192Z,97511.88
2022-09-18T06:39:42.875Z,97509.59
2022-09-18T06:42:17.173Z,97508.50
2022-09-18T06:45:16.731Z,97510.38
2022-09-18T06:47:47.623Z,97504.75
2022-09-18T06:50:15.051Z,97514.53
2022-09-18T06:52:45.311Z,97510.13
2022-09-18T06:55:13.072Z,97509.59
2022-09-18T06:57:40.723Z,97510.84
2022-09-18T07:00:11.799Z,97506.25
2022-09-18T07:02:40.434Z,97513.09
2022-09-18T07:05:32.952Z,97513.41
2022-09-18T07:08:00.781Z,97504.06
2022-09-18T07:10:30.991Z,97509.75
2022-09-18T07:13:00.870Z,97523.34
2022-09-18T07:15:29.942Z,97512.25
2022-09-18T07:18:03.067Z,97540.81
2022-09-18T07:20:30.982Z,97546.31
2022-09-18T07:23:01.289Z,97549.94
2022-09-18T07:25:41.397Z,97559.50
2022-09-18T07:28:11.490Z,97551.94
2022-09-18T07:30:46.752Z,97548.88
2022-09-18T07:33:15.650Z,97555.91
2022-09-18T07:35:48.097Z,97549.09
2022-09-18T07:38:17.852Z,97561.28
2022-09-18T07:40:53.059Z,97566.91
2022-09-18T07:43:28.999Z,97577.53
2022-09-18T07:45:56.590Z,97577.22
2022-09-18T07:48:24.635Z,97578.56
2022-09-18T07:50:58.623Z,97594.44
2022-09-18T07:53:26.716Z,97580.28
2022-09-18T07:55:57.922Z,97582.63
2022-09-18T07:58:27.268Z,97587.44
2022-09-18T08:01:02.827Z,97598.75
2022-09-18T08:03:32.615Z,97607.94
2022-09-18T08:06:20.768Z,97610.91
2022-09-18T08:09:08.433Z,97615.66
2022-09-18T08:11:54.428Z,97614.31
2022-09-18T08:14:30.405Z,97620.91
2022-09-18T08:17:20.798Z,97615.31
2022-09-18T08:20:14.651Z,97616.44
2022-09-18T08:22:48.972Z,97617.53
2022-09-18T08:25:18.119Z,97620.91
2022-09-18T08:27:48.621Z,97601.59
2022-09-18T08:30:22.704Z,97615.97
2022-09-18T08:33:08.019Z,97619.47
2022-09-18T08:35:35.844Z,97619.91
2022-09-18T08:38:17.062Z,97612.44
2022-09-18T08:41:50.308Z,97619.31
2022-09-18T08:44:24.551Z,97625.63
2022-09-18T08:47:01.006Z,97622.78
2022-09-18T08:49:32.535Z,97621.44
2022-09-18T08:52:23.566Z,97622.03
2022-09-18T08:55:33.651Z,97615.50
2022-09-18T08:58:16.699Z,97635.16
2022-09-18T09:01:16.159Z,97640.09
2022-09-18T09:04:13.116Z,97635.78
2022-09-18T09:06:55.771Z,97642.78
2022-09-18T09:09:40.455Z,97640.41
2022-09-18T09:12:24.071Z,97656.41
2022-09-18T09:15:20.818Z,97652.31
2022-09-18T09:18:23.293Z,97660.19
2022-09-18T09:20:55.260Z,97654.06
2022-09-18T09:23:46.455Z,97657.44
2022-09-18T09:26:28.509Z,97666.91
2022-09-18T09:29:24.033Z,97668.53
2022-09-18T09:32:28.822Z,97678.97
2022-09-18T09:35:17.066Z,97676.22
2022-09-18T09:38:13.351Z,97680.09
2022-09-18T09:40:50.237Z,97686.34
2022-09-18T09:43:24.851Z,97684.25
2022-09-18T09:45:59.569Z,97679.75
2022-09-18T09:48:36.819Z,97681.88
2022-09-18T09:51:49.999Z,97683.75
2022-09-18T09:54:17.782Z,97683.94
2022-09-18T09:56:57.300Z,97687.09
2022-09-18T09:59:40.716Z,97695.41
2022-09-18T10:02:56.593Z,97698.09
2022-09-18T10:05:45.004Z,97705.75
2022-09-18T10:08:29.511Z,97705.75
2022-09-18T10:11:11.544Z,97712.06
2022-09-18T10:13:44.143Z,97700.03
2022-09-18T10:16:24.909Z,97718.50
2022-09-18T10:18:53.961Z,97697.91
2022-09-18T10:21:27.428Z,97718.91
2022-09-18T10:24:01.485Z,97714.47
2022-09-18T10:26:38.423Z,97725.38
2022-09-18T10:29:06.370Z,97721.66
2022-09-18T10:31:48.719Z,97716.31
2022-09-18T10:34:41.517Z,97718.50
2022-09-18T10:37:46.416Z,97727.97
2022-09-18T10:40:32.062Z,97724.59
2022-09-18T10:43:01.356Z,97723.19
2022-09-18T10:45:40.474Z,97731.06
2022-09-18T10:48:27.882Z,97731.00
2022-09-18T10:51:04.940Z,97731.06
2022-09-18T10:53:42.787Z,97730.34
2022-09-18T10:56:26.283Z,97731.75
2022-09-18T10:58:57.616Z,97728.38
2022-09-18T11:01:26.506Z,97730.50
2022-09-18T11:04:06.985Z,97735.03
2022-09-18T11:06:38.072Z,97739.59
2022-09-18T11:09:33.744Z,97746.81
2022-09-18T11:12:02.687Z,97743.22
2022-09-18T11:14:41.990Z,97745.47
2022-09-18T11:17:24.035Z,97751.56
2022-09-18T11:19:55.145Z,97753.78
2022-09-18T11:22:46.018Z,97740.81
2022-09-18T11:25:28.954Z,97746.56
2022-09-18T11:28:24.126Z,97753.72
2022-09-18T11:30:59.278Z,97754.41
2022-09-18T11:33:31.560Z,97752.25
2022-09-18T11:36:05.949Z,97750.59
2022-09-18T11:38:46.213Z,97767.63
2022-09-18T11:41:23.467Z,97765.00
2022-09-18T11:44:04.891Z,97762.00
2022-09-18T11:46:52.096Z,97767.25
2022-09-18T11:52:04.286Z,97760.63
2022-09-18T11:57:21.790Z,97762.09
2022-09-18T12:00:05.049Z,97764.56
2022-09-18T12:02:53.171Z,97756.28
2022-09-18T12:05:41.253Z,97761.59
2022-09-18T12:08:21.494Z,97766.56
2022-09-18T12:11:24.237Z,97780.53
2022-09-18T12:14:13.731Z,97769.53
2022-09-18T12:17:28.221Z,97768.44
2022-09-18T12:20:02.636Z,97775.00
2022-09-18T12:22:45.164Z,97778.25
2022-09-18T12:25:17.162Z,97777.66
2022-09-18T12:28:15.031Z,97764.44
2022-09-18T12:30:54.874Z,97772.00
2022-09-18T12:33:48.590Z,97770.09
2022-09-18T12:36:37.702Z,97781.84
2022-09-18T12:39:24.269Z,97775.84
2022-09-18T12:42:19.001Z,97774.56
2022-09-18T12:45:05.047Z,97780.06
2022-09-18T12:47:57.340Z,97776.53
2022-09-18T12:50:59.280Z,97764.59
2022-09-18T12:53:45.377Z,97771.41
2022-09-18T12:56:27.307Z,97769.13
2022-09-18T12:59:01.447Z,97781.22
2022-09-18T13:02:00.471Z,97784.06
2022-09-18T13:04:41.010Z,97781.31
2022-09-18T13:07:17.385Z,97773.22
2022-09-18T13:10:07.277Z,97784.75
2022-09-18T13:12:41.773Z,97781.66
2022-09-18T13:15:33.941Z,97780.78
2022-09-18T13:18:19.172Z,97778.69
2022-09-18T13:20:47.284Z,97771.53
2022-09-18T13:23:39.521Z,97777.63
2022-09-18T13:26:13.361Z,97786.28
2022-09-18T13:28:42.641Z,97789.44
2022-09-18T13:31:32.683Z,97790.78
2022-09-18T13:34:01.524Z,97788.00
2022-09-18T13:36:38.464Z,97796.56
2022-09-18T13:39:16.175Z,97792.19
2022-09-18T13:41:50.677Z,97801.41
2022-09-18T13:44:21.634Z,97802.59
2022-09-18T13:46:51.871Z,97800.47
2022-09-18T13:49:29.164Z,97809.63
2022-09-18T13:51:57.218Z,97810.75
2022-09-18T13:54:28.530Z,97789.31
2022-09-18T13:57:11.183Z,97804.94
2022-09-18T13:59:48.622Z,97798.00
2022-09-18T14:02:31.501Z,97807.56
2022-09-18T14:05:18.895Z,97810.72
2022-09-18T14:07:54.163Z,97819.53
2022-09-18T14:10:26.712Z,97826.25
2022-09-18T14:13:24.341Z,97821.97
2022-09-18T14:15:59.211Z,97820.28
2022-09-18T14:18:45.091Z,97823.88
2022-09-18T14:21:18.976Z,97828.84
2022-09-18T14:23:46.733Z,97820.81
2022-09-18T14:26:37.501Z,97835.63
2022-09-18T14:29:11.040Z,97823.03
2022-09-18T14:31:41.511Z,97833.56
2022-09-18T14:34:22.247Z,97826.69
2022-09-18T14:36:55.417Z,97832.78
2022-09-18T14:39:28.709Z,97840.25
2022-09-18T14:42:00.313Z,97831.50
2022-09-18T14:44:30.036Z,97842.25
2022-09-18T14:46:59.986Z,97840.81
2022-09-18T14:49:31.628Z,97842.69
2022-09-18T14:52:04.956Z,97845.38
2022-09-18T14:54:40.392Z,97848.13
2022-09-18T14:57:15.407Z,97866.44
2022-09-18T14:59:43.063Z,97858.72
2022-09-18T15:02:32.223Z,97866.41
2022-09-18T15:05:02.267Z,97863.06
2022-09-18T15:07:31.055Z,97864.34
2022-09-18T15:10:02.922Z,97868.19
2022-09-18T15:12:33.010Z,97877.53
2022-09-18T15:15:00.516Z,97872.91
2022-09-18T15:17:31.109Z,97877.94
2022-09-18T15:20:02.851Z,97889.88
2022-09-18T15:22:31.270Z,97881.94
2022-09-18T15:25:02.089Z,97885.16
2022-09-18T15:27:31.936Z,97894.97
2022-09-18T15:30:01.675Z,97891.47
2022-09-18T15:32:38.415Z,97902.06
2022-09-18T15:35:13.032Z,97900.19
2022-09-18T15:37:50.594Z,97902.63
2022-09-18T15:40:25.028Z,97907.28
2022-09-18T15:42:59.463Z,97911.69
2022-09-18T15:45:30.118Z,97907.03
2022-09-18T15:48:00.828Z,97912.25
2022-09-18T15:50:34.070Z,97918.41
2022-09-18T15:53:14.090Z,97914.53
2022-09-18T15:56:02.833Z,97915.66
2022-09-18T15:58:35.675Z,97905.03
2022-09-18T16:01:06.978Z,97914.59
2022-09-18T16:03:41.803Z,97913.69
2022-09-18T16:06:21.766Z,97907.44
2022-09-18T16:08:53.238Z,97914.34
2022-09-18T16:11:46.686Z,97912.63
2022-09-18T16:14:43.867Z,97918.44
2022-09-18T16:17:31.216Z,97920.78
2022-09-18T16:20:20.352Z,97920.03
2022-09-18T16:22:49.474Z,97938.47
2022-09-18T16:25:24.665Z,97929.81
2022-09-18T16:27:56.646Z,97915.44
2022-09-18T16:30:25.575Z,97915.63
2022-09-18T16:33:00.198Z,97915.16
2022-09-18T16:35:27.930Z,97925.88
2022-09-18T16:37:56.022Z,97918.91
2022-09-18T16:40:27.616Z,97929.06
2022-09-18T16:42:58.659Z,97931.13
2022-09-18T16:45:29.190Z,97938.97
2022-09-18T16:48:00.498Z,97937.50
2022-09-18T16:50:28.410Z,97947.59
2022-09-18T16:53:00.718Z,97939.81
2022-09-18T16:55:30.990Z,97941.28
2022-09-18T16:57:58.899Z,97935.22
2022-09-18T17:00:28.073Z,97928.53
2022-09-18T17:02:57.275Z,97934.75
2022-09-18T17:05:26.340Z,97926.22
2022-09-18T17:07:54.061Z,97913.13
2022-09-18T17:10:21.900Z,97920.06
2022-09-18T17:12:49.562Z,97920.03
2022-09-18T17:15:17.466Z,97924.69
2022-09-18T17:17:45.867Z,97918.06
2022-09-18T17:20:17.991Z,97914.91
2022-09-18T17:22:47.264Z,97912.59
2022-09-18T17:25:16.075Z,97918.78
2022-09-18T17:27:44.104Z,97919.09
2022-09-18T17:30:12.938Z,97916.69
2022-09-18T17:32:40.513Z,97914.38
2022-09-18T17:35:08.361Z,97912.41
2022-09-18T17:37:36.171Z,97911.69
2022-09-18T17:40:03.815Z,97911.34
2022-09-18T17:42:31.516Z,97916.41
2022-09-18T17:44:59.333Z,97921.75
2022-09-18T17:47:26.838Z,97910.47
2022-09-18T17:49:54.330Z,97919.00
2022-09-18T17:52:21.846Z,97911.78
2022-09-18T17:54:49.800Z,97913.34
2022-09-18T17:57:17.750Z,97918.03
2022-09-18T17:59:45.330Z,97927.75
2022-09-18T18:02:14.017Z,97933.53
2022-09-18T18:04:41.718Z,97919.16
2022-09-18T18:07:09.400Z,97929.38
2022-09-18T18:09:37.815Z,97928.56
2022-09-18T18:12:06.235Z,97927.81
2022-09-18T18:14:34.922Z,97926.28
2022-09-18T18:17:04.360Z,97915.09
2022-09-18T18:19:31.753Z,97921.38
2022-09-18T18:21:59.235Z,97919.41
2022-09-18T18:24:27.250Z,97928.69
2022-09-18T18:26:56.045Z,97922.78
2022-09-18T18:29:24.099Z,97911.22
2022-09-18T18:31:52.021Z,97919.06
2022-09-18T18:34:25.449Z,97924.91
2022-09-18T18:36:53.517Z,97921.22
2022-09-18T18:39:20.966Z,97912.72
2022-09-18T18:41:48.896Z,97919.72
2022-09-18T18:44:16.610Z,97901.56
2022-09-18T18:46:44.611Z,97896.59
2022-09-18T18:49:16.863Z,97902.56
2022-09-18T18:51:48.056Z,97905.69
2022-09-18T18:54:17.897Z,97910.03
2022-09-18T18:56:47.302Z,97911.72
2022-09-18T18:59:17.188Z,97914.88
2022-09-18T19:01:44.915Z,97917.22
2022-09-18T19:04:15.411Z,97915.28
2022-09-18T19:06:44.371Z,97918.00
2022-09-18T19:09:20.487Z,97918.69
2022-09-18T19:11:50.327Z,97915.31
2022-09-18T19:14:23.705Z,97912.13
2022-09-18T19:16:52.206Z,97903.25
2022-09-18T19:19:23.736Z,97913.38
2022-09-18T19:21:53.061Z,97913.06
2022-09-18T19:24:21.656Z,97909.94
2022-09-18T19:26:49.380Z,97909.94
2022-09-18T19:29:19.015Z,97918.50
2022-09-18T19:31:47.433Z,97911.09
2022-09-18T19:34:18.975Z,97917.28
2022-09-18T19:36:50.481Z,97895.53
2022-09-18T19:39:24.121Z,97900.84
2022-09-18T19:42:08.278Z,97899.34
2022-09-18T19:44:48.596Z,97905.47
2022-09-18T19:47:28.060Z,97910.84
2022-09-18T19:50:02.059Z,97913.22
2022-09-18T19:52:30.957Z,97909.50
2022-09-18T19:54:59.346Z,97914.16
2022-09-18T19:57:28.727Z,97914.16
2022-09-18T19:59:57.479Z,97917.41
2022-09-18T20:02:25.738Z,97915.09
2022-09-18T20:04:53.442Z,97911.19
2022-09-18T20:07:20.922Z,97909.22
2022-09-18T20:09:48.623Z,97902.16
2022-09-18T20:12:16.269Z,97915.78
2022-09-18T20:14:43.856Z,97903.69
2022-09-18T20:17:11.534Z,97915.06
2022-09-18T20:19:39.101Z,97914.34
2022-09-18T20:22:06.592Z,97913.63
2022-09-18T20:24:34.531Z,97908.59
2022-09-18T20:27:02.064Z,97920.31
2022-09-18T20:29:30.734Z,97925.34
2022-09-18T20:31:58.395Z,97921.06
2022-09-18T20:34:26.274Z,97922.63
2022-09-18T20:36:55.152Z,97932.38
2022-09-18T20:39:22.773Z,97930.00
2022-09-18T20:41:51.398Z,97928.88
2022-09-18T20:44:22.257Z,97931.56
2022-09-18T20:46:50.777Z,97929.72
2022-09-18T20:49:18.299Z,97932.44
2022-09-18T20:51:46.286Z,97934.38
2022-09-18T20:54:14.929Z,97923.47
2022-09-18T20:56:44.800Z,97923.03
2022-09-18T20:59:16.187Z,97924.59
2022-09-18T21:01:45.159Z,97909.75
2022-09-18T21:04:17.645Z,97915.97
2022-09-18T21:06:57.591Z,97915.44
2022-09-18T21:09:27.060Z,97899.25
2022-09-18T21:11:56.977Z,97904.03
2022-09-18T21:14:27.646Z,97893.94
2022-09-18T21:16:56.109Z,97894.00
2022-09-18T21:19:26.353Z,97894.00
2022-09-18T21:21:54.070Z,97882.75
2022-09-18T21:24:22.622Z,97887.41
2022-09-18T21:26:50.602Z,97902.16
2022-09-18T21:29:21.178Z,97904.38
2022-09-18T21:31:51.605Z,97906.69
2022-09-18T21:34:30.371Z,97905.94
2022-09-18T21:37:00.078Z,97903.63
2022-09-18T21:39:28.618Z,97905.59
2022-09-18T21:41:58.387Z,97904.44
2022-09-18T21:44:28.374Z,97901.00
2022-09-18T21:47:02.262Z,97909.50
2022-09-18T21:49:30.778Z,97905.75
2022-09-18T21:52:06.966Z,97901.00
2022-09-18T21:54:34.621Z,97898.41
2022-09-18T21:57:02.724Z,97904.28
2022-09-18T21:59:32.108Z,97911.66
2022-09-18T22:02:00.879Z,97902.78
2022-09-18T22:04:30.893Z,97902.38
2022-09-18T22:07:00.619Z,97903.91
2022-09-18T22:09:30.798Z,97908.53
2022-09-18T22:11:58.656Z,97897.69
2022-09-18T22:14:32.477Z,97899.97
2022-09-18T22:17:01.900Z,97894.56
2022-09-18T22:19:29.625Z,97886.75
2022-09-18T22:21:57.243Z,97877.06
2022-09-18T22:24:26.159Z,97870.88
2022-09-18T22:27:08.672Z,97874.69
2022-09-18T22:29:37.895Z,97872.81
2022-09-18T22:32:06.198Z,97860.41
2022-09-18T22:34:37.276Z,97862.72
2022-09-18T22:37:05.561Z,97863.91
2022-09-18T22:39:33.133Z,97859.56
2022-09-18T22:42:01.133Z,97858.38
2022-09-18T22:44:28.507Z,97867.31
2022-09-18T22:46:56.100Z,97882.09
2022-09-18T22:49:24.383Z,97895.28
2022-09-18T22:51:52.562Z,97889.06
2022-09-18T22:54:25.147Z,97896.03
2022-09-18T22:56:53.594Z,97894.16
2022-09-18T22:59:23.219Z,97899.66
2022-09-18T23:02:00.916Z,97890.28
2022-09-18T23:04:30.248Z,97883.38
2022-09-18T23:06:59.535Z,97883.78
2022-09-18T23:09:27.778Z,97896.25
2022-09-18T23:11:55.902Z,97891.56
2022-09-18T23:14:26.503Z,97888.47
2022-09-18T23:16:55.004Z,97883.44
2022-09-18T23:19:27.124Z,97883.81
2022-09-18T23:21:55.867Z,97881.53
2022-09-18T23:24:24.057Z,97876.44
2022-09-18T23:26:53.025Z,97878.81
2022-09-18T23:29:22.979Z,97873.72
2022-09-18T23:31:58.013Z,97878.00
2022-09-18T23:34:29.469Z,97873.72
2022-09-18T23:36:58.733Z,97872.19
2022-09-18T23:39:28.879Z,97877.66
2022-09-18T23:41:59.000Z,97875.28
2022-09-18T23:44:28.913Z,97876.81
2022-09-18T23:46:56.498Z,97858.94
2022-09-18T23:49:24.106Z,97858.94
2022-09-18T23:51:54.190Z,97863.63
2022-09-18T23:54:24.380Z,97866.34
2022-09-18T23:56:52.886Z,97871.00
2022-09-18T23:59:23.039Z,97873.31
